sensor_id;sensor_type;location;lat;lon;timestamp;pressure;altitude;pressure_sealevel;temperature;humidity
30554;BME280;17335;50.720;7.452;2023-05-10T00:00:30;98632.19;;;12.49;100.00
30554;BME280;17335;50.720;7.452;2023-05-10T00:02:57;98631.19;;;12.50;100.00
30554;BME280;17335;50.720;7.452;2023-05-10T00:05:24;98635.94;;;12.40;100.00
30554;BME280;17335;50.720;7.452;2023-05-10T00:07:50;98632.75;;;12.36;100.00
30554;BME280;17335;50.720;7.452;2023-05-10T00:10:17;98631.06;;;12.35;100.00
30554;BME280;17335;50.720;7.452;2023-05-10T00:12:44;98630.41;;;12.33;100.00
30554;BME280;17335;50.720;7.452;2023-05-10T00:15:10;98635.28;;;12.38;100.00
30554;BME280;17335;50.720;7.452;2023-05-10T00:17:37;98630.91;;;12.29;100.00
30554;BME280;17335;50.720;7.452;2023-05-10T00:20:04;98631.41;;;12.32;100.00
30554;BME280;17335;50.720;7.452;2023-05-10T00:22:31;98635.09;;;12.40;100.00
30554;BME280;17335;50.720;7.452;2023-05-10T00:24:58;98629.41;;;12.34;100.00
30554;BME280;17335;50.720;7.452;2023-05-10T00:27:25;98631.22;;;12.42;100.00
30554;BME280;17335;50.720;7.452;2023-05-10T00:29:52;98636.13;;;12.30;100.00
30554;BME280;17335;50.720;7.452;2023-05-10T00:32:18;98632.75;;;12.36;100.00
30554;BME280;17335;50.720;7.452;2023-05-10T00:34:45;98636.63;;;12.34;100.00
30554;BME280;17335;50.720;7.452;2023-05-10T00:37:11;98633.91;;;12.34;100.00
30554;BME280;17335;50.720;7.452;2023-05-10T00:39:38;98628.69;;;12.41;100.00
30554;BME280;17335;50.720;7.452;2023-05-10T00:42:04;98632.41;;;12.40;100.00
30554;BME280;17335;50.720;7.452;2023-05-10T00:44:31;98630.56;;;12.32;100.00
30554;BME280;17335;50.720;7.452;2023-05-10T00:46:58;98631.41;;;12.32;100.00
30554;BME280;17335;50.720;7.452;2023-05-10T00:49:25;98632.94;;;12.27;100.00
30554;BME280;17335;50.720;7.452;2023-05-10T00:51:52;98630.44;;;12.25;100.00
30554;BME280;17335;50.720;7.452;2023-05-10T00:54:19;98623.72;;;12.21;100.00
30554;BME280;17335;50.720;7.452;2023-05-10T00:56:45;98628.53;;;12.34;100.00
30554;BME280;17335;50.720;7.452;2023-05-10T00:59:18;98627.72;;;12.25;100.00
30554;BME280;17335;50.720;7.452;2023-05-10T01:01:45;98624.38;;;12.23;100.00
30554;BME280;17335;50.720;7.452;2023-05-10T01:04:12;98627.06;;;12.23;100.00
30554;BME280;17335;50.720;7.452;2023-05-10T01:06:41;98623.81;;;12.36;100.00
30554;BME280;17335;50.720;7.452;2023-05-10T01:09:08;98623.00;;;12.35;100.00
30554;BME280;17335;50.720;7.452;2023-05-10T01:11:35;98625.69;;;12.27;100.00
30554;BME280;17335;50.720;7.452;2023-05-10T01:14:02;98629.41;;;12.34;100.00
30554;BME280;17335;50.720;7.452;2023-05-10T01:16:34;98631.41;;;12.32;100.00
30554;BME280;17335;50.720;7.452;2023-05-10T01:19:05;98625.34;;;12.38;100.00
30554;BME280;17335;50.720;7.452;2023-05-10T01:38:31;98634.47;;;12.29;100.00
30554;BME280;17335;50.720;7.452;2023-05-10T01:44:01;98633.72;;;12.44;100.00
30554;BME280;17335;50.720;7.452;2023-05-10T01:46:35;98634.41;;;12.37;100.00
30554;BME280;17335;50.720;7.452;2023-05-10T01:49:20;98633.44;;;12.30;100.00
30554;BME280;17335;50.720;7.452;2023-05-10T01:51:53;98623.31;;;12.41;100.00
30554;BME280;17335;50.720;7.452;2023-05-10T01:54:22;98630.38;;;12.42;100.00
30554;BME280;17335;50.720;7.452;2023-05-10T01:56:55;98627.38;;;12.36;100.00
30554;BME280;17335;50.720;7.452;2023-05-10T01:59:27;98628.38;;;12.35;100.00
30554;BME280;17335;50.720;7.452;2023-05-10T02:01:58;98631.22;;;12.34;100.00
30554;BME280;17335;50.720;7.452;2023-05-10T02:04:26;98625.69;;;12.35;100.00
30554;BME280;17335;50.720;7.452;2023-05-10T02:06:55;98631.41;;;12.32;100.00
30554;BME280;17335;50.720;7.452;2023-05-10T02:09:23;98629.88;;;12.38;100.00
30554;BME280;17335;50.720;7.452;2023-05-10T02:11:52;98626.88;;;12.33;100.00
30554;BME280;17335;50.720;7.452;2023-05-10T02:14:19;98626.47;;;12.44;100.00
30554;BME280;17335;50.720;7.452;2023-05-10T02:16:48;98637.09;;;12.37;100.00
30554;BME280;17335;50.720;7.452;2023-05-10T02:19:18;98639.44;;;12.41;100.00
30554;BME280;17335;50.720;7.452;2023-05-10T02:21:47;98640.66;;;12.38;100.00
30554;BME280;17335;50.720;7.452;2023-05-10T02:24:15;98636.78;;;12.32;100.00
30554;BME280;17335;50.720;7.452;2023-05-10T02:26:43;98639.13;;;12.44;100.00
30554;BME280;17335;50.720;7.452;2023-05-10T02:29:11;98636.09;;;12.38;100.00
30554;BME280;17335;50.720;7.452;2023-05-10T02:31:38;98645.66;;;12.41;100.00
30554;BME280;17335;50.720;7.452;2023-05-10T02:34:06;98643.19;;;12.40;100.00
30554;BME280;17335;50.720;7.452;2023-05-10T02:36:35;98648.03;;;12.36;100.00
30554;BME280;17335;50.720;7.452;2023-05-10T02:39:03;98643.03;;;12.33;100.00
30554;BME280;17335;50.720;7.452;2023-05-10T02:41:32;98643.53;;;12.36;100.00
30554;BME280;17335;50.720;7.452;2023-05-10T02:44:01;98645.56;;;12.34;100.00
30554;BME280;17335;50.720;7.452;2023-05-10T02:46:29;98648.25;;;12.34;100.00
30554;BME280;17335;50.720;7.452;2023-05-10T02:48:56;98657.81;;;12.29;100.00
30554;BME280;17335;50.720;7.452;2023-05-10T02:51:25;98657.81;;;12.29;100.00
30554;BME280;17335;50.720;7.452;2023-05-10T02:53:55;98651.13;;;12.25;100.00
30554;BME280;17335;50.720;7.452;2023-05-10T02:56:25;98652.13;;;12.24;100.00
30554;BME280;17335;50.720;7.452;2023-05-10T02:58:55;98647.78;;;12.23;100.00
30554;BME280;17335;50.720;7.452;2023-05-10T03:01:22;98650.94;;;12.26;100.00
30554;BME280;17335;50.720;7.452;2023-05-10T03:03:48;98643.53;;;12.28;100.00
30554;BME280;17335;50.720;7.452;2023-05-10T03:06:15;98652.13;;;12.24;100.00
30554;BME280;17335;50.720;7.452;2023-05-10T03:08:44;98645.75;;;12.25;100.00
30554;BME280;17335;50.720;7.452;2023-05-10T03:11:43;98652.13;;;12.24;100.00
30554;BME280;17335;50.720;7.452;2023-05-10T03:14:34;98642.06;;;12.17;100.00
30554;BME280;17335;50.720;7.452;2023-05-10T03:17:17;98651.28;;;12.23;100.00
30554;BME280;17335;50.720;7.452;2023-05-10T03:19:58;98656.34;;;12.26;100.00
30554;BME280;17335;50.720;7.452;2023-05-10T03:22:36;98654.97;;;12.22;100.00
30554;BME280;17335;50.720;7.452;2023-05-10T03:25:07;98653.66;;;12.10;100.00
30554;BME280;17335;50.720;7.452;2023-05-10T03:27:36;98650.28;;;12.24;100.00
30554;BME280;17335;50.720;7.452;2023-05-10T03:30:08;98658.38;;;12.24;100.00
30554;BME280;17335;50.720;7.452;2023-05-10T03:32:35;98655.84;;;12.14;100.00
30554;BME280;17335;50.720;7.452;2023-05-10T03:35:09;98649.97;;;12.19;100.00
30554;BME280;17335;50.720;7.452;2023-05-10T03:37:36;98657.50;;;12.24;100.00
30554;BME280;17335;50.720;7.452;2023-05-10T03:40:04;98658.03;;;12.19;100.00
30554;BME280;17335;50.720;7.452;2023-05-10T03:42:30;98663.59;;;12.17;100.00
30554;BME280;17335;50.720;7.452;2023-05-10T03:44:57;98661.41;;;12.21;100.00
30554;BME280;17335;50.720;7.452;2023-05-10T03:47:24;98666.63;;;12.14;100.00
30554;BME280;17335;50.720;7.452;2023-05-10T03:49:51;98665.25;;;12.18;100.00
30554;BME280;17335;50.720;7.452;2023-05-10T03:52:17;98675.53;;;12.15;100.00
30554;BME280;17335;50.720;7.452;2023-05-10T03:54:44;98671.84;;;12.16;100.00
30554;BME280;17335;50.720;7.452;2023-05-10T03:57:11;98679.72;;;12.26;100.00
30554;BME280;17335;50.720;7.452;2023-05-10T03:59:37;98673.31;;;12.18;100.00
30554;BME280;17335;50.720;7.452;2023-05-10T04:02:04;98682.75;;;12.14;100.00
30554;BME280;17335;50.720;7.452;2023-05-10T04:04:30;98685.94;;;12.10;100.00
30554;BME280;17335;50.720;7.452;2023-05-10T04:06:57;98691.00;;;12.13;100.00
30554;BME280;17335;50.720;7.452;2023-05-10T04:09:23;98694.69;;;12.12;100.00
30554;BME280;17335;50.720;7.452;2023-05-10T04:11:50;98693.34;;;12.16;100.00
30554;BME280;17335;50.720;7.452;2023-05-10T04:14:17;98685.63;;;12.13;100.00
30554;BME280;17335;50.720;7.452;2023-05-10T04:16:43;98693.53;;;12.14;100.00
30554;BME280;17335;50.720;7.452;2023-05-10T04:19:10;98685.44;;;12.14;100.00
30554;BME280;17335;50.720;7.452;2023-05-10T04:21:38;98687.81;;;12.17;100.00
30554;BME280;17335;50.720;7.452;2023-05-10T04:24:05;98685.59;;;12.29;100.00
30554;BME280;17335;50.720;7.452;2023-05-10T04:26:33;98699.22;;;12.28;100.00
30554;BME280;17335;50.720;7.452;2023-05-10T04:28:59;98698.72;;;12.24;100.00
30554;BME280;17335;50.720;7.452;2023-05-10T04:31:26;98698.91;;;12.23;100.00
30554;BME280;17335;50.720;7.452;2023-05-10T04:33:54;98702.25;;;12.25;100.00
30554;BME280;17335;50.720;7.452;2023-05-10T04:36:21;98701.75;;;12.21;100.00
30554;BME280;17335;50.720;7.452;2023-05-10T04:38:47;98703.94;;;12.26;100.00
30554;BME280;17335;50.720;7.452;2023-05-10T04:41:14;98703.41;;;12.30;100.00
30554;BME280;17335;50.720;7.452;2023-05-10T04:43:40;98710.50;;;12.23;100.00
30554;BME280;17335;50.720;7.452;2023-05-10T04:46:07;98711.50;;;12.22;100.00
30554;BME280;17335;50.720;7.452;2023-05-10T04:48:34;98705.09;;;12.23;100.00
30554;BME280;17335;50.720;7.452;2023-05-10T04:51:00;98707.63;;;12.25;100.00
30554;BME280;17335;50.720;7.452;2023-05-10T04:53:28;98709.81;;;12.21;100.00
30554;BME280;17335;50.720;7.452;2023-05-10T04:55:54;98700.72;;;12.22;100.00
30554;BME280;17335;50.720;7.452;2023-05-10T04:58:21;98716.03;;;12.22;100.00
30554;BME280;17335;50.720;7.452;2023-05-10T05:00:48;98719.75;;;12.21;100.00
30554;BME280;17335;50.720;7.452;2023-05-10T05:03:14;98723.94;;;12.23;100.00
30554;BME280;17335;50.720;7.452;2023-05-10T05:05:41;98723.78;;;12.25;100.00
30554;BME280;17335;50.720;7.452;2023-05-10T05:08:08;98729.31;;;12.23;100.00
30554;BME280;17335;50.720;7.452;2023-05-10T05:10:35;98724.09;;;12.30;100.00
30554;BME280;17335;50.720;7.452;2023-05-10T05:13:01;98723.94;;;12.23;100.00
30554;BME280;17335;50.720;7.452;2023-05-10T05:15:28;98735.19;;;12.27;100.00
30554;BME280;17335;50.720;7.452;2023-05-10T05:17:54;98740.09;;;12.31;100.00
30554;BME280;17335;50.720;7.452;2023-05-10T05:20:21;98742.78;;;12.31;100.00
30554;BME280;17335;50.720;7.452;2023-05-10T05:22:48;98745.13;;;12.26;100.00
30554;BME280;17335;50.720;7.452;2023-05-10T05:25:15;98746.78;;;12.27;100.00
30554;BME280;17335;50.720;7.452;2023-05-10T05:27:42;98752.19;;;12.27;100.00
30554;BME280;17335;50.720;7.452;2023-05-10T05:30:08;98753.03;;;12.28;100.00
30554;BME280;17335;50.720;7.452;2023-05-10T05:32:35;98749.16;;;12.30;100.00
30554;BME280;17335;50.720;7.452;2023-05-10T05:35:02;98754.88;;;12.35;100.00
30554;BME280;17335;50.720;7.452;2023-05-10T05:37:29;98759.75;;;12.32;100.00
30554;BME280;17335;50.720;7.452;2023-05-10T05:39:55;98762.44;;;12.32;100.00
30554;BME280;17335;50.720;7.452;2023-05-10T05:42:22;98766.28;;;12.37;100.00
30554;BME280;17335;50.720;7.452;2023-05-10T05:44:48;98756.91;;;12.33;100.00
30554;BME280;17335;50.720;7.452;2023-05-10T05:47:15;98767.31;;;12.36;100.00
30554;BME280;17335;50.720;7.452;2023-05-10T05:49:42;98768.00;;;12.38;100.00
30554;BME280;17335;50.720;7.452;2023-05-10T05:52:08;98769.81;;;12.46;100.00
30554;BME280;17335;50.720;7.452;2023-05-10T05:54:35;98770.84;;;12.45;100.00
30554;BME280;17335;50.720;7.452;2023-05-10T05:57:02;98781.22;;;12.56;100.00
30554;BME280;17335;50.720;7.452;2023-05-10T05:59:28;98782.94;;;12.49;100.00
30554;BME280;17335;50.720;7.452;2023-05-10T06:01:55;98783.09;;;12.56;100.00
30554;BME280;17335;50.720;7.452;2023-05-10T06:04:22;98781.56;;;12.62;100.00
30554;BME280;17335;50.720;7.452;2023-05-10T06:06:49;98787.09;;;12.68;100.00
30554;BME280;17335;50.720;7.452;2023-05-10T06:09:15;98787.59;;;12.72;100.00
30554;BME280;17335;50.720;7.452;2023-05-10T06:11:42;98787.09;;;12.76;100.00
30554;BME280;17335;50.720;7.452;2023-05-10T06:14:09;98782.38;;;12.79;100.00
30554;BME280;17335;50.720;7.452;2023-05-10T06:16:36;98785.56;;;12.82;100.00
30554;BME280;17335;50.720;7.452;2023-05-10T06:19:03;98789.78;;;12.85;100.00
30554;BME280;17335;50.720;7.452;2023-05-10T06:21:29;98781.66;;;12.93;100.00
30554;BME280;17335;50.720;7.452;2023-05-10T06:23:56;98778.44;;;12.98;100.00
30554;BME280;17335;50.720;7.452;2023-05-10T06:26:23;98789.91;;;13.00;100.00
30554;BME280;17335;50.720;7.452;2023-05-10T06:28:49;98790.72;;;13.00;100.00
30554;BME280;17335;50.720;7.452;2023-05-10T06:31:16;98796.13;;;13.00;100.00
30554;BME280;17335;50.720;7.452;2023-05-10T06:33:43;98801.81;;;13.05;100.00
30554;BME280;17335;50.720;7.452;2023-05-10T06:36:10;98797.78;;;13.01;100.00
30554;BME280;17335;50.720;7.452;2023-05-10T06:38:36;98790.00;;;13.06;100.00
30554;BME280;17335;50.720;7.452;2023-05-10T06:41:02;98789.34;;;13.04;100.00
30554;BME280;17335;50.720;7.452;2023-05-10T06:43:29;98801.34;;;13.02;100.00
30554;BME280;17335;50.720;7.452;2023-05-10T06:45:56;98801.16;;;13.03;100.00
30554;BME280;17335;50.720;7.452;2023-05-10T06:48:23;98805.00;;;13.09;100.00
30554;BME280;17335;50.720;7.452;2023-05-10T06:50:49;98807.31;;;13.20;100.00
30554;BME280;17335;50.720;7.452;2023-05-10T06:53:16;98810.50;;;13.32;100.00
30554;BME280;17335;50.720;7.452;2023-05-10T06:55:42;98803.75;;;13.28;100.00
30554;BME280;17335;50.720;7.452;2023-05-10T06:58:09;98808.97;;;13.38;100.00
30554;BME280;17335;50.720;7.452;2023-05-10T07:00:35;98816.69;;;13.41;100.00
30554;BME280;17335;50.720;7.452;2023-05-10T07:03:06;98817.72;;;13.40;100.00
30554;BME280;17335;50.720;7.452;2023-05-10T07:05:33;98808.06;;;13.45;100.00
30554;BME280;17335;50.720;7.452;2023-05-10T07:08:00;98810.97;;;13.36;100.00
30554;BME280;17335;50.720;7.452;2023-05-10T07:10:27;98809.44;;;13.41;100.00
30554;BME280;17335;50.720;7.452;2023-05-10T07:12:54;98805.25;;;13.39;100.00
30554;BME280;17335;50.720;7.452;2023-05-10T07:15:21;98812.13;;;13.49;100.00
30554;BME280;17335;50.720;7.452;2023-05-10T07:17:48;98814.22;;;13.62;100.00
30554;BME280;17335;50.720;7.452;2023-05-10T07:20:15;98799.97;;;13.77;100.00
30554;BME280;17335;50.720;7.452;2023-05-10T07:22:41;98801.97;;;13.83;100.00
30554;BME280;17335;50.720;7.452;2023-05-10T07:25:08;98811.44;;;13.79;100.00
30554;BME280;17335;50.720;7.452;2023-05-10T07:27:35;98802.97;;;13.82;100.00
30554;BME280;17335;50.720;7.452;2023-05-10T07:30:01;98806.88;;;13.79;100.00
30554;BME280;17335;50.720;7.452;2023-05-10T07:32:28;98803.09;;;13.88;100.00
30554;BME280;17335;50.720;7.452;2023-05-10T07:34:55;98805.09;;;13.95;100.00
30554;BME280;17335;50.720;7.452;2023-05-10T07:37:21;98805.22;;;14.01;100.00
30554;BME280;17335;50.720;7.452;2023-05-10T07:39:48;98818.97;;;13.83;100.00
30554;BME280;17335;50.720;7.452;2023-05-10T07:42:14;98806.97;;;13.63;100.00
30554;BME280;17335;50.720;7.452;2023-05-10T07:44:41;98811.38;;;13.56;100.00
30554;BME280;17335;50.720;7.452;2023-05-10T07:47:08;98807.56;;;13.50;100.00
30554;BME280;17335;50.720;7.452;2023-05-10T07:49:35;98816.47;;;13.50;100.00
30554;BME280;17335;50.720;7.452;2023-05-10T07:52:03;98830.69;;;13.44;100.00
30554;BME280;17335;50.720;7.452;2023-05-10T07:54:30;98831.69;;;13.43;100.00
30554;BME280;17335;50.720;7.452;2023-05-10T07:56:56;98835.34;;;13.50;100.00
30554;BME280;17335;50.720;7.452;2023-05-10T07:59:23;98830.44;;;13.54;100.00
30554;BME280;17335;50.720;7.452;2023-05-10T08:01:50;98837.97;;;13.67;100.00
30554;BME280;17335;50.720;7.452;2023-05-10T08:04:16;98837.28;;;13.65;100.00
30554;BME280;17335;50.720;7.452;2023-05-10T08:06:43;98832.88;;;13.72;100.00
30554;BME280;17335;50.720;7.452;2023-05-10T08:09:10;98838.75;;;13.76;100.00
30554;BME280;17335;50.720;7.452;2023-05-10T08:11:37;98831.16;;;13.79;100.00
30554;BME280;17335;50.720;7.452;2023-05-10T08:14:03;98830.81;;;13.82;100.00
30554;BME280;17335;50.720;7.452;2023-05-10T08:16:30;98835.41;;;13.97;100.00
30554;BME280;17335;50.720;7.452;2023-05-10T08:18:57;98836.13;;;13.91;100.00
30554;BME280;17335;50.720;7.452;2023-05-10T08:21:24;98831.50;;;13.76;100.00
30554;BME280;17335;50.720;7.452;2023-05-10T08:23:50;98827.38;;;13.88;100.00
30554;BME280;17335;50.720;7.452;2023-05-10T08:26:17;98835.78;;;13.94;100.00
30554;BME280;17335;50.720;7.452;2023-05-10T08:28:44;98838.78;;;13.99;100.00
30554;BME280;17335;50.720;7.452;2023-05-10T08:31:10;98832.72;;;13.97;100.00
30554;BME280;17335;50.720;7.452;2023-05-10T08:33:37;98837.09;;;13.98;100.00
30554;BME280;17335;50.720;7.452;2023-05-10T08:36:04;98833.63;;;14.12;100.00
30554;BME280;17335;50.720;7.452;2023-05-10T08:38:30;98835.31;;;14.13;100.00
30554;BME280;17335;50.720;7.452;2023-05-10T08:40:57;98838.84;;;14.14;100.00
30554;BME280;17335;50.720;7.452;2023-05-10T08:43:29;98835.66;;;14.10;100.00
30554;BME280;17335;50.720;7.452;2023-05-10T08:45:56;98845.06;;;14.14;100.00
30554;BME280;17335;50.720;7.452;2023-05-10T08:48:26;98843.31;;;14.21;100.00
30554;BME280;17335;50.720;7.452;2023-05-10T08:50:57;98858.50;;;14.22;100.00
30554;BME280;17335;50.720;7.452;2023-05-10T08:53:26;98852.75;;;14.25;100.00
30554;BME280;17335;50.720;7.452;2023-05-10T08:55:55;98859.53;;;14.21;100.00
30554;BME280;17335;50.720;7.452;2023-05-10T08:58:22;98855.19;;;14.35;100.00
30554;BME280;17335;50.720;7.452;2023-05-10T09:00:49;98869.59;;;14.51;100.00
30554;BME280;17335;50.720;7.452;2023-05-10T09:03:17;98863.00;;;14.53;100.00
30554;BME280;17335;50.720;7.452;2023-05-10T09:05:44;98867.00;;;14.57;100.00
30554;BME280;17335;50.720;7.452;2023-05-10T09:08:11;98861.31;;;14.52;100.00
30554;BME280;17335;50.720;7.452;2023-05-10T09:10:39;98864.19;;;14.51;100.00
30554;BME280;17335;50.720;7.452;2023-05-10T09:13:07;98870.06;;;14.54;100.00
30554;BME280;17335;50.720;7.452;2023-05-10T09:15:35;98873.25;;;14.58;100.00
30554;BME280;17335;50.720;7.452;2023-05-10T09:18:01;98872.72;;;14.62;100.00
30554;BME280;17335;50.720;7.452;2023-05-10T09:20:28;98864.56;;;14.48;100.00
30554;BME280;17335;50.720;7.452;2023-05-10T09:22:55;98859.22;;;14.62;100.00
30554;BME280;17335;50.720;7.452;2023-05-10T09:25:21;98864.47;;;14.56;100.00
30554;BME280;17335;50.720;7.452;2023-05-10T09:27:49;98875.78;;;14.59;100.00
30554;BME280;17335;50.720;7.452;2023-05-10T09:30:29;98865.50;;;14.55;100.00
30554;BME280;17335;50.720;7.452;2023-05-10T09:32:57;98875.44;;;14.39;100.00
30554;BME280;17335;50.720;7.452;2023-05-10T09:35:26;98884.50;;;14.23;100.00
30554;BME280;17335;50.720;7.452;2023-05-10T09:37:57;98886.28;;;14.08;100.00
30554;BME280;17335;50.720;7.452;2023-05-10T09:40:25;98882.69;;;13.93;100.00
30554;BME280;17335;50.720;7.452;2023-05-10T09:42:57;98885.72;;;13.90;100.00
30554;BME280;17335;50.720;7.452;2023-05-10T09:45:26;98891.28;;;13.88;100.00
30554;BME280;17335;50.720;7.452;2023-05-10T09:47:53;98894.47;;;13.92;100.00
30554;BME280;17335;50.720;7.452;2023-05-10T09:50:20;98894.09;;;14.03;100.00
30554;BME280;17335;50.720;7.452;2023-05-10T09:55:20;98907.50;;;14.11;100.00
30554;BME280;17335;50.720;7.452;2023-05-10T09:57:49;98906.28;;;14.22;100.00
30554;BME280;17335;50.720;7.452;2023-05-10T10:00:17;98909.31;;;14.42;100.00
30554;BME280;17335;50.720;7.452;2023-05-10T10:02:53;98906.09;;;14.47;100.00
30554;BME280;17335;50.720;7.452;2023-05-10T10:05:20;98898.09;;;14.30;100.00
30554;BME280;17335;50.720;7.452;2023-05-10T10:07:47;98903.44;;;14.15;100.00
30554;BME280;17335;50.720;7.452;2023-05-10T10:10:15;98915.25;;;14.14;100.00
30554;BME280;17335;50.720;7.452;2023-05-10T10:12:43;98910.75;;;14.30;100.00
30554;BME280;17335;50.720;7.452;2023-05-10T10:15:10;98917.28;;;14.35;100.00
30554;BME280;17335;50.720;7.452;2023-05-10T10:17:38;98911.19;;;14.41;100.00
30554;BME280;17335;50.720;7.452;2023-05-10T10:20:06;98907.53;;;14.34;100.00
30554;BME280;17335;50.720;7.452;2023-05-10T10:22:37;98908.84;;;14.38;100.00
30554;BME280;17335;50.720;7.452;2023-05-10T10:25:04;98906.53;;;14.58;100.00
30554;BME280;17335;50.720;7.452;2023-05-10T10:28:05;98911.34;;;14.86;100.00
30554;BME280;17335;50.720;7.452;2023-05-10T10:30:43;98903.47;;;14.99;100.00
30554;BME280;17335;50.720;7.452;2023-05-10T10:35:58;98903.13;;;15.32;100.00
30554;BME280;17335;50.720;7.452;2023-05-10T10:38:25;98901.25;;;15.48;100.00
30554;BME280;17335;50.720;7.452;2023-05-10T10:41:26;98905.63;;;15.64;100.00
30554;BME280;17335;50.720;7.452;2023-05-10T10:44:24;98896.56;;;15.71;100.00
30554;BME280;17335;50.720;7.452;2023-05-10T10:47:28;98881.94;;;15.81;100.00
30554;BME280;17335;50.720;7.452;2023-05-10T10:52:26;98884.16;;;15.92;100.00
30554;BME280;17335;50.720;7.452;2023-05-10T10:54:59;98883.72;;;16.10;100.00
30554;BME280;17335;50.720;7.452;2023-05-10T10:57:29;98887.66;;;16.07;100.00
30554;BME280;17335;50.720;7.452;2023-05-10T11:07:55;98872.47;;;15.91;100.00
30554;BME280;17335;50.720;7.452;2023-05-10T11:10:26;98881.94;;;15.81;100.00
30554;BME280;17335;50.720;7.452;2023-05-10T11:13:00;98892.56;;;15.82;100.00
30554;BME280;17335;50.720;7.452;2023-05-10T11:15:31;98886.69;;;15.79;100.00
30554;BME280;17335;50.720;7.452;2023-05-10T11:17:58;98887.22;;;15.59;100.00
30554;BME280;17335;50.720;7.452;2023-05-10T11:20:29;98886.44;;;15.29;100.00
30554;BME280;17335;50.720;7.452;2023-05-10T11:23:13;98881.56;;;15.09;100.00
30554;BME280;17335;50.720;7.452;2023-05-10T11:25:43;98884.56;;;14.99;100.00
30554;BME280;17335;50.720;7.452;2023-05-10T11:28:12;98890.59;;;15.02;100.00
30554;BME280;17335;50.720;7.452;2023-05-10T11:30:40;98893.19;;;14.95;100.00
30554;BME280;17335;50.720;7.452;2023-05-10T11:33:08;98900.47;;;14.94;100.00
30554;BME280;17335;50.720;7.452;2023-05-10T11:35:39;98905.00;;;14.79;100.00
30554;BME280;17335;50.720;7.452;2023-05-10T11:38:12;98913.59;;;14.82;100.00
30554;BME280;17335;50.720;7.452;2023-05-10T11:40:40;98924.53;;;14.66;100.00
30554;BME280;17335;50.720;7.452;2023-05-10T11:43:08;98924.69;;;14.65;100.00
30554;BME280;17335;50.720;7.452;2023-05-10T11:45:35;98930.09;;;14.41;100.00
30554;BME280;17335;50.720;7.452;2023-05-10T11:48:02;98929.88;;;14.51;100.00
30554;BME280;17335;50.720;7.452;2023-05-10T11:50:29;98940.50;;;14.53;100.00
30554;BME280;17335;50.720;7.452;2023-05-10T11:52:56;98938.66;;;14.45;100.00
30554;BME280;17335;50.720;7.452;2023-05-10T11:55:23;98940.06;;;14.41;100.00
30554;BME280;17335;50.720;7.452;2023-05-10T11:57:54;98944.38;;;14.50;100.00
30554;BME280;17335;50.720;7.452;2023-05-10T12:00:21;98934.22;;;14.60;100.00
30554;BME280;17335;50.720;7.452;2023-05-10T12:02:48;98930.81;;;14.81;100.00
30554;BME280;17335;50.720;7.452;2023-05-10T12:05:15;98927.78;;;14.99;100.00
30554;BME280;17335;50.720;7.452;2023-05-10T12:07:42;98924.72;;;15.17;100.00
30554;BME280;17335;50.720;7.452;2023-05-10T12:10:13;98929.78;;;15.50;100.00
30554;BME280;17335;50.720;7.452;2023-05-10T12:12:45;98922.06;;;15.77;100.00
30554;BME280;17335;50.720;7.452;2023-05-10T12:15:19;98917.44;;;16.07;100.00
30554;BME280;17335;50.720;7.452;2023-05-10T12:17:46;98915.09;;;16.04;100.00
30554;BME280;17335;50.720;7.452;2023-05-10T12:22:44;98923.28;;;16.47;100.00
30554;BME280;17335;50.720;7.452;2023-05-10T12:25:12;98910.06;;;16.59;100.00
30554;BME280;17335;50.720;7.452;2023-05-10T12:27:39;98924.03;;;16.63;100.00
30554;BME280;17335;50.720;7.452;2023-05-10T12:30:06;98909.66;;;16.41;100.00
30554;BME280;17335;50.720;7.452;2023-05-10T12:32:43;98915.59;;;16.51;100.00
30554;BME280;17335;50.720;7.452;2023-05-10T12:35:10;98921.91;;;16.58;100.00
30554;BME280;17335;50.720;7.452;2023-05-10T12:37:36;98922.75;;;16.59;100.00
30554;BME280;17335;50.720;7.452;2023-05-10T12:40:06;98914.50;;;16.45;100.00
30554;BME280;17335;50.720;7.452;2023-05-10T12:42:35;98901.56;;;16.26;100.00
30554;BME280;17335;50.720;7.452;2023-05-10T12:45:05;98917.19;;;16.24;100.00
30554;BME280;17335;50.720;7.452;2023-05-10T12:47:34;98927.78;;;16.04;100.00
30554;BME280;17335;50.720;7.452;2023-05-10T12:50:01;98924.06;;;16.05;100.00
30554;BME280;17335;50.720;7.452;2023-05-10T12:52:29;98934.88;;;16.20;100.00
30554;BME280;17335;50.720;7.452;2023-05-10T12:54:56;98934.28;;;16.24;100.00
30554;BME280;17335;50.720;7.452;2023-05-10T12:57:22;98932.50;;;16.31;100.00
30554;BME280;17335;50.720;7.452;2023-05-10T12:59:49;98929.13;;;16.29;100.00
30554;BME280;17335;50.720;7.452;2023-05-10T13:02:16;98944.31;;;16.45;100.00
30554;BME280;17335;50.720;7.452;2023-05-10T13:04:44;98925.56;;;16.07;100.00
30554;BME280;17335;50.720;7.452;2023-05-10T13:07:14;98936.94;;;16.18;100.00
30554;BME280;17335;50.720;7.452;2023-05-10T13:09:41;98929.81;;;16.17;100.00
30554;BME280;17335;50.720;7.452;2023-05-10T13:12:08;98927.56;;;16.20;100.00
30554;BME280;17335;50.720;7.452;2023-05-10T13:14:35;98930.13;;;16.07;100.00
30554;BME280;17335;50.720;7.452;2023-05-10T13:17:02;98931.44;;;16.11;100.00
30554;BME280;17335;50.720;7.452;2023-05-10T13:19:29;98928.91;;;16.09;100.00
30554;BME280;17335;50.720;7.452;2023-05-10T13:21:55;98937.88;;;15.95;100.00
30554;BME280;17335;50.720;7.452;2023-05-10T13:24:22;98935.69;;;15.84;100.00
30554;BME280;17335;50.720;7.452;2023-05-10T13:26:48;98926.16;;;15.58;100.00
30554;BME280;17335;50.720;7.452;2023-05-10T13:29:15;98924.66;;;15.55;100.00
30554;BME280;17335;50.720;7.452;2023-05-10T13:31:44;98932.31;;;15.37;100.00
30554;BME280;17335;50.720;7.452;2023-05-10T13:34:11;98938.19;;;15.26;100.00